Time;durP1;ratioP1;P1;durP2;ratioP2;P2;SDS_P1;SDS_P2;PMS_P1;PMS_P2;Temp;Humidity;BMP_temperature;BMP_pressure;BME280_temperature;BME280_humidity;BME280_pressure;Samples;Min_cycle;Max_cycle;Signal;HPM_P1;HPM_P2
2024/03/13 00:01:54;;;;;;;30.40;18.98;;;10.20;99.90;;;;;;4991041;28;20482;-75
2024/03/13 00:04:21;;;;;;;18.15;14.30;;;10.20;99.90;;;;;;4978799;28;20144;-73
2024/03/13 00:06:50;;;;;;;20.73;11.65;;;10.30;99.90;;;;;;4995560;28;20038;-73
2024/03/13 00:09:20;;;;;;;17.02;12.18;;;10.10;99.90;;;;;;4993985;28;20045;-71
2024/03/13 00:11:48;;;;;;;17.48;11.70;;;10.10;99.90;;;;;;4980027;28;20045;-72
2024/03/13 00:14:16;;;;;;;18.48;11.60;;;10.10;99.90;;;;;;4991229;28;20046;-71
2024/03/13 00:16:45;;;;;;;14.27;12.07;;;10.10;99.90;;;;;;4990716;28;20169;-71
2024/03/13 00:19:13;;;;;;;15.13;10.57;;;10.20;99.90;;;;;;4974057;28;20442;-73
2024/03/13 00:21:43;;;;;;;15.80;10.20;;;10.20;99.90;;;;;;4964019;28;20079;-73
2024/03/13 00:24:12;;;;;;;19.70;10.73;;;10.20;99.90;;;;;;4992950;28;20049;-71
2024/03/13 00:26:39;;;;;;;12.55;10.23;;;10.20;99.90;;;;;;4990226;28;20030;-73
2024/03/13 00:29:08;;;;;;;14.30;9.38;;;10.10;99.90;;;;;;4981394;28;20042;-73
2024/03/13 00:31:38;;;;;;;14.57;12.07;;;10.10;99.90;;;;;;4974234;28;20053;-74
2024/03/13 00:34:10;;;;;;;14.48;10.50;;;10.10;99.90;;;;;;4994742;28;20034;-73
2024/03/13 00:36:37;;;;;;;12.77;9.82;;;10.10;99.90;;;;;;5029801;28;20372;-72
2024/03/13 00:39:06;;;;;;;13.60;9.77;;;10.10;99.90;;;;;;4984052;28;20259;-71
2024/03/13 00:41:34;;;;;;;14.75;10.77;;;10.10;99.90;;;;;;4991324;28;20109;-73
2024/03/13 00:44:04;;;;;;;15.00;10.02;;;10.00;99.90;;;;;;4975976;28;20050;-73
2024/03/13 00:46:33;;;;;;;;;;;9.80;99.90;;;;;;5004667;28;20031;-74
2024/03/13 00:49:02;;;;;;;14.02;10.93;;;9.70;99.90;;;;;;4991856;28;19917;-72
2024/03/13 00:51:35;;;;;;;13.35;10.65;;;9.70;99.90;;;;;;4990865;28;20547;-73
2024/03/13 00:54:04;;;;;;;14.63;11.40;;;9.80;99.90;;;;;;4973821;28;20052;-72
2024/03/13 00:56:33;;;;;;;13.40;9.73;;;9.80;99.90;;;;;;4990993;28;20052;-73
2024/03/13 00:59:01;;;;;;;14.45;8.90;;;9.90;99.90;;;;;;4980493;28;20096;-72
2024/03/13 01:01:28;;;;;;;14.73;9.32;;;10.00;99.90;;;;;;4973793;28;20046;-73
2024/03/13 01:03:59;;;;;;;12.00;8.68;;;10.10;99.90;;;;;;5001847;28;20038;-74
2024/03/13 01:06:29;;;;;;;12.02;8.10;;;10.10;99.90;;;;;;4978753;28;20617;-72
2024/03/13 01:08:58;;;;;;;13.48;9.50;;;10.10;99.90;;;;;;4991906;28;20427;-73
2024/03/13 01:11:29;;;;;;;13.60;9.00;;;10.00;99.90;;;;;;4991024;28;20107;-73
2024/03/13 01:13:57;;;;;;;11.05;9.13;;;10.10;99.90;;;;;;4990933;28;20038;-76
2024/03/13 01:16:25;;;;;;;12.63;9.18;;;10.00;99.90;;;;;;4991098;28;20038;-71
2024/03/13 01:18:53;;;;;;;12.93;9.75;;;9.80;99.90;;;;;;4986294;28;20470;-75
2024/03/13 01:21:22;;;;;;;12.35;8.40;;;9.80;99.90;;;;;;4990334;28;20042;-73
2024/03/13 01:23:50;;;;;;;13.77;9.50;;;9.80;99.90;;;;;;4990840;28;20428;-74
2024/03/13 01:26:20;;;;;;;12.20;8.80;;;9.70;99.90;;;;;;4991305;28;20362;-72
2024/03/13 01:28:48;;;;;;;12.30;9.60;;;9.70;99.90;;;;;;4991069;28;20541;-72
2024/03/13 01:31:16;;;;;;;11.48;9.00;;;9.80;99.90;;;;;;5000434;28;20121;-72
2024/03/13 01:33:45;;;;;;;12.98;9.50;;;9.60;99.90;;;;;;4993173;28;20063;-76
2024/03/13 01:36:13;;;;;;;13.30;9.95;;;9.70;99.90;;;;;;4999375;28;20041;-74
2024/03/13 01:38:41;;;;;;;12.43;10.07;;;9.80;99.90;;;;;;4990509;28;20039;-72
2024/03/13 01:55:24;;;;;;;14.45;9.85;;;9.80;99.90;;;;;;4990243;28;20109;-73
2024/03/13 01:58:07;;;;;;;13.35;9.57;;;9.70;99.90;;;;;;4976575;28;20429;-73
2024/03/13 02:03:31;;;;;;;14.85;9.85;;;9.60;99.90;;;;;;4962198;28;20084;-73
2024/03/13 02:06:01;;;;;;;18.08;10.13;;;9.60;99.90;;;;;;4989852;28;20053;-74
2024/03/13 02:08:28;;;;;;;12.15;9.63;;;9.50;99.90;;;;;;4990230;28;20483;-73
2024/03/13 02:10:58;;;;;;;10.10;8.60;;;9.50;99.90;;;;;;4985721;28;20389;-73
2024/03/13 02:13:26;;;;;;;13.07;9.23;;;9.50;99.90;;;;;;4972792;28;20111;-72
2024/03/13 02:15:54;;;;;;;13.80;8.93;;;9.60;99.90;;;;;;4989741;28;20414;-72
2024/03/13 02:18:29;;;;;;;12.38;8.18;;;9.50;99.90;;;;;;4990447;28;20045;-72
2024/03/13 02:20:58;;;;;;;11.98;8.38;;;9.50;99.90;;;;;;4972503;28;20456;-73
2024/03/13 02:23:30;;;;;;;11.27;8.35;;;9.60;99.90;;;;;;4990222;28;20061;-73
2024/03/13 02:25:58;;;;;;;11.60;7.38;;;9.50;99.90;;;;;;4975707;28;20041;-72
2024/03/13 02:28:34;;;;;;;10.65;8.13;;;9.40;99.90;;;;;;4979182;28;20450;-73
2024/03/13 02:31:02;;;;;;;9.20;7.93;;;9.40;99.90;;;;;;4980457;28;20094;-74
2024/03/13 02:33:30;;;;;;;8.38;7.18;;;9.40;99.90;;;;;;5007533;28;20388;-73
2024/03/13 02:36:01;;;;;;;10.68;7.25;;;9.40;99.90;;;;;;4989631;28;20062;-73
2024/03/13 02:38:28;;;;;;;12.05;7.88;;;9.50;99.90;;;;;;5002476;28;20396;-74
2024/03/13 02:40:57;;;;;;;11.63;6.85;;;9.40;99.90;;;;;;4990024;28;20042;-71
2024/03/13 02:43:25;;;;;;;7.88;6.50;;;9.40;99.90;;;;;;4989736;28;20045;-73
2024/03/13 02:45:53;;;;;;;9.93;7.40;;;9.40;99.90;;;;;;4989604;28;20038;-72
2024/03/13 02:48:20;;;;;;;9.38;7.13;;;9.40;99.90;;;;;;5001579;28;20109;-72
2024/03/13 02:50:48;;;;;;;9.50;7.32;;;9.40;99.90;;;;;;4989002;28;20042;-71
2024/03/13 02:53:15;;;;;;;9.88;6.55;;;9.40;99.90;;;;;;5002179;28;20245;-72
2024/03/13 02:55:43;;;;;;;8.27;7.00;;;9.40;99.90;;;;;;4989773;28;20042;-70
2024/03/13 02:58:11;;;;;;;9.25;6.75;;;9.40;99.90;;;;;;4989087;28;20062;-73
2024/03/13 03:00:39;;;;;;;10.20;7.13;;;9.30;99.90;;;;;;4989400;28;20050;-70
2024/03/13 03:03:11;;;;;;;13.02;7.15;;;9.30;99.90;;;;;;4990630;28;20074;-73
2024/03/13 03:05:39;;;;;;;10.20;7.57;;;9.30;99.90;;;;;;5018401;28;20126;-72
2024/03/13 03:08:07;;;;;;;10.07;7.47;;;9.30;99.90;;;;;;4995636;28;20481;-73
2024/03/13 03:10:35;;;;;;;11.43;7.65;;;8.90;99.90;;;;;;4998679;28;20479;-73
2024/03/13 03:13:04;;;;;;;11.63;8.23;;;8.90;99.90;;;;;;4989244;28;20132;-72
2024/03/13 03:15:34;;;;;;;12.80;7.85;;;8.90;99.90;;;;;;4972011;28;20389;-72
2024/03/13 03:18:03;;;;;;;12.70;7.53;;;9.00;99.90;;;;;;4995672;28;20415;-73
2024/03/13 03:20:32;;;;;;;9.57;7.13;;;9.10;99.90;;;;;;4994948;28;20087;-72
2024/03/13 03:22:59;;;;;;;12.60;8.13;;;9.20;99.90;;;;;;4983767;28;20476;-71
2024/03/13 03:25:28;;;;;;;13.13;7.32;;;9.10;99.90;;;;;;4988701;28;20040;-71
2024/03/13 03:27:59;;;;;;;9.15;7.65;;;9.20;99.90;;;;;;4989416;28;20036;-72
2024/03/13 03:30:30;;;;;;;14.48;7.57;;;9.10;99.90;;;;;;4975832;28;20146;-72
2024/03/13 03:33:00;;;;;;;;;;;9.10;99.90;;;;;;5008864;28;20087;-71
2024/03/13 03:35:29;;;;;;;;;;;9.20;99.90;;;;;;4990693;28;19917;-72
2024/03/13 03:37:56;;;;;;;9.75;7.40;;;9.20;99.90;;;;;;5000619;28;19917;-71
2024/03/13 03:40:24;;;;;;;10.38;7.53;;;9.20;99.90;;;;;;4971442;28;20405;-73
2024/03/13 03:42:52;;;;;;;8.93;6.70;;;9.00;99.90;;;;;;5001122;28;20038;-73
2024/03/13 03:45:20;;;;;;;9.65;7.38;;;9.10;99.90;;;;;;4988568;28;20045;-74
2024/03/13 03:47:47;;;;;;;12.85;7.55;;;9.10;99.90;;;;;;4971473;28;20363;-73
2024/03/13 03:50:27;;;;;;;10.18;7.43;;;8.90;99.90;;;;;;4988599;28;20042;-73
2024/03/13 03:52:54;;;;;;;9.95;7.85;;;8.80;99.90;;;;;;5001162;28;20030;-71
2024/03/13 03:55:22;;;;;;;9.80;8.05;;;8.90;99.90;;;;;;4988834;28;20046;-72
2024/03/13 03:57:49;;;;;;;10.52;7.72;;;9.10;99.90;;;;;;4988611;28;20436;-73
2024/03/13 04:00:22;;;;;;;11.23;7.93;;;9.20;99.90;;;;;;4998455;28;20397;-73
2024/03/13 04:02:51;;;;;;;11.95;7.10;;;9.30;99.90;;;;;;4976395;28;20117;-73
2024/03/13 04:05:19;;;;;;;8.50;6.63;;;9.30;99.90;;;;;;5000053;28;20477;-72
2024/03/13 04:07:51;;;;;;;11.10;7.38;;;9.30;99.90;;;;;;4998722;28;20160;-72
2024/03/13 04:10:19;;;;;;;10.38;7.60;;;9.30;99.90;;;;;;5003444;28;20065;-73
2024/03/13 04:12:49;;;;;;;7.97;6.70;;;9.20;99.90;;;;;;4993459;28;20389;-71
2024/03/13 04:15:21;;;;;;;9.52;8.45;;;9.20;99.90;;;;;;5002227;28;20133;-73
2024/03/13 04:17:52;;;;;;;9.32;7.20;;;9.30;99.90;;;;;;4979659;28;20038;-73
2024/03/13 04:20:20;;;;;;;;;;;9.40;99.90;;;;;;5011494;28;20042;-74
2024/03/13 04:22:49;;;;;;;9.68;7.25;;;9.40;99.90;;;;;;4981051;28;19918;-73
2024/03/13 04:25:18;;;;;;;9.90;7.22;;;9.40;99.90;;;;;;4997676;28;20057;-74
2024/03/13 04:27:47;;;;;;;9.70;7.78;;;9.20;99.90;;;;;;4986886;28;20045;-71
2024/03/13 04:30:15;;;;;;;9.27;7.43;;;9.20;99.90;;;;;;4974463;28;20046;-73
2024/03/13 04:32:42;;;;;;;10.52;7.47;;;9.30;99.90;;;;;;4991546;28;20056;-72
2024/03/13 04:35:10;;;;;;;11.10;8.07;;;9.30;99.90;;;;;;4975865;28;20137;-73
2024/03/13 04:37:39;;;;;;;11.30;7.80;;;9.30;99.90;;;;;;4984634;28;20043;-72
2024/03/13 04:40:10;;;;;;;11.27;7.75;;;9.30;99.90;;;;;;4986932;28;20478;-72
2024/03/13 04:42:38;;;;;;;9.50;7.47;;;9.30;99.90;;;;;;4974313;28;20047;-73
2024/03/13 04:45:06;;;;;;;11.90;8.10;;;9.30;99.90;;;;;;4973902;28;20062;-73
2024/03/13 04:47:35;;;;;;;11.75;8.00;;;9.30;99.90;;;;;;5002722;28;20036;-73
2024/03/13 04:50:08;;;;;;;8.93;7.50;;;9.30;99.90;;;;;;4991299;28;20054;-73
2024/03/13 04:52:36;;;;;;;12.07;7.93;;;9.40;99.90;;;;;;5003976;28;20041;-73
2024/03/13 04:55:05;;;;;;;10.95;7.68;;;9.40;99.90;;;;;;4974090;28;20074;-75
2024/03/13 04:57:34;;;;;;;10.25;8.05;;;9.00;99.90;;;;;;4992239;28;20117;-72
2024/03/13 05:00:02;;;;;;;11.75;8.18;;;8.90;99.90;;;;;;4985252;28;20045;-72
2024/03/13 05:02:29;;;;;;;10.95;8.07;;;9.00;99.90;;;;;;4992586;28;20043;-72
2024/03/13 05:04:57;;;;;;;9.73;8.00;;;9.10;99.90;;;;;;5008082;28;20040;-73
2024/03/13 05:07:25;;;;;;;11.60;8.00;;;9.20;99.90;;;;;;4980741;28;20038;-72
2024/03/13 05:09:53;;;;;;;10.63;7.32;;;9.20;99.90;;;;;;4991875;28;20050;-72
2024/03/13 05:12:20;;;;;;;9.88;7.78;;;9.30;99.90;;;;;;4978685;28;20531;-72
2024/03/13 05:14:48;;;;;;;10.77;8.13;;;9.40;99.90;;;;;;4974915;28;20095;-72
2024/03/13 05:17:15;;;;;;;9.60;7.57;;;9.30;99.90;;;;;;4990316;28;20387;-73
2024/03/13 05:19:43;;;;;;;12.85;8.60;;;9.00;99.90;;;;;;4990624;28;20038;-73
2024/03/13 05:22:11;;;;;;;9.35;7.80;;;8.80;99.90;;;;;;4972919;28;20081;-71
2024/03/13 05:24:38;;;;;;;11.52;7.93;;;9.00;99.90;;;;;;4978332;28;20040;-72
2024/03/13 05:27:06;;;;;;;11.80;8.18;;;9.10;99.90;;;;;;4999052;28;20137;-74
2024/03/13 05:29:34;;;;;;;9.65;7.32;;;9.20;99.90;;;;;;4991621;28;20117;-74
2024/03/13 05:32:09;;;;;;;9.25;7.43;;;9.30;99.90;;;;;;4985110;28;20038;-74
2024/03/13 05:34:38;;;;;;;9.70;8.02;;;9.40;99.90;;;;;;4990581;28;20034;-74
2024/03/13 05:37:07;;;;;;;9.80;7.88;;;9.60;99.90;;;;;;4990418;28;20062;-71
2024/03/13 05:39:35;;;;;;;10.23;7.75;;;9.70;99.90;;;;;;5002813;28;20038;-72
2024/03/13 05:42:02;;;;;;;10.05;7.60;;;9.80;99.90;;;;;;4957978;28;20039;-72
2024/03/13 05:44:30;;;;;;;11.00;7.28;;;9.80;99.90;;;;;;4990246;28;20456;-73
2024/03/13 05:46:57;;;;;;;9.93;8.20;;;9.80;99.90;;;;;;4986268;28;20103;-72
2024/03/13 05:49:25;;;;;;;8.68;6.95;;;9.70;99.90;;;;;;4958799;28;20147;-73
2024/03/13 05:51:55;;;;;;;9.80;7.93;;;9.80;99.90;;;;;;4990571;28;20517;-72
2024/03/13 05:54:23;;;;;;;9.95;7.85;;;9.80;99.90;;;;;;4972768;28;20045;-72
2024/03/13 05:56:53;;;;;;;8.98;7.75;;;9.90;99.90;;;;;;4972893;28;20054;-72
2024/03/13 05:59:20;;;;;;;10.73;8.77;;;9.90;99.90;;;;;;4973177;28;20103;-73
2024/03/13 06:01:48;;;;;;;10.98;8.10;;;10.00;99.90;;;;;;4999267;28;20388;-73
2024/03/13 06:04:20;;;;;;;10.00;7.82;;;10.00;99.90;;;;;;4998006;28;20053;-71
2024/03/13 06:06:52;;;;;;;10.25;7.78;;;10.00;99.90;;;;;;4991544;28;20054;-72
2024/03/13 06:09:19;;;;;;;10.43;8.43;;;10.00;99.90;;;;;;4973047;28;20091;-73
2024/03/13 06:11:47;;;;;;;157.05;80.47;;;10.10;99.90;;;;;;4975479;28;20627;-76
2024/03/13 06:14:16;;;;;;;313.48;168.68;;;10.50;99.90;;;;;;4971764;28;20056;-76
2024/03/13 06:16:44;;;;;;;129.83;72.77;;;10.60;99.90;;;;;;4972527;28;20088;-75
2024/03/13 06:19:12;;;;;;;41.60;27.83;;;10.70;99.90;;;;;;5002576;28;20390;-71
2024/03/13 06:21:39;;;;;;;84.78;50.10;;;10.70;99.90;;;;;;4972585;28;20062;-73
2024/03/13 06:24:09;;;;;;;19.92;16.77;;;10.70;99.90;;;;;;4982592;28;20104;-71
2024/03/13 06:26:40;;;;;;;14.80;11.13;;;10.60;99.90;;;;;;4988420;28;20046;-72
2024/03/13 06:31:54;;;;;;;14.00;8.45;;;10.20;99.90;;;;;;4994355;28;20113;-71
2024/03/13 06:34:23;;;;;;;12.60;8.80;;;10.00;99.90;;;;;;4996178;28;20048;-72
2024/03/13 06:36:50;;;;;;;11.70;9.05;;;9.90;99.90;;;;;;4993288;28;20046;-72
2024/03/13 06:39:21;;;;;;;14.02;8.73;;;10.00;99.90;;;;;;4958271;28;20039;-72
2024/03/13 06:41:50;;;;;;;11.20;8.23;;;10.00;99.90;;;;;;4989576;28;20054;-71
2024/03/13 06:44:18;;;;;;;13.70;9.57;;;9.90;99.90;;;;;;4973314;28;20045;-72
2024/03/13 06:46:46;;;;;;;17.63;9.10;;;9.90;99.90;;;;;;4986515;28;20127;-71
2024/03/13 06:49:15;;;;;;;13.25;8.27;;;9.90;99.90;;;;;;4978027;28;20122;-73
2024/03/13 06:51:43;;;;;;;10.57;7.60;;;9.80;99.90;;;;;;4989615;28;20062;-71
2024/03/13 06:54:13;;;;;;;10.65;8.15;;;9.90;99.90;;;;;;4974660;28;20039;-77
2024/03/13 06:56:47;;;;;;;11.20;7.88;;;10.00;99.90;;;;;;5005880;28;20374;-74
2024/03/13 06:59:17;;;;;;;;;;;10.00;99.90;;;;;;5007959;28;20117;-70
2024/03/13 07:01:47;;;;;;;42.70;25.05;;;10.20;99.90;;;;;;4978125;28;19921;-76
2024/03/13 07:04:15;;;;;;;22.80;14.35;;;10.40;99.90;;;;;;4985525;28;20038;-73
2024/03/13 07:06:43;;;;;;;17.00;11.90;;;10.50;99.90;;;;;;4973930;28;20053;-71
2024/03/13 07:09:11;;;;;;;18.58;11.05;;;10.60;99.90;;;;;;4990375;28;20076;-75
2024/03/13 07:11:39;;;;;;;11.63;9.27;;;10.70;99.90;;;;;;4990868;28;20046;-73
2024/03/13 07:14:12;;;;;;;15.80;10.05;;;10.60;99.90;;;;;;4989962;28;20034;-75
2024/03/13 07:16:39;;;;;;;13.68;10.05;;;10.50;99.90;;;;;;4989312;28;20038;-73
2024/03/13 07:19:09;;;;;;;16.83;11.68;;;10.30;99.90;;;;;;4991515;28;20053;-72
2024/03/13 07:21:36;;;;;;;17.17;11.25;;;10.30;99.90;;;;;;4965124;28;20055;-74
2024/03/13 07:24:07;;;;;;;17.77;12.13;;;10.10;99.90;;;;;;4992338;28;20028;-73
2024/03/13 07:26:36;;;;;;;14.48;10.70;;;10.00;99.90;;;;;;4994181;28;20477;-73
2024/03/13 07:29:04;;;;;;;19.42;11.02;;;10.10;99.90;;;;;;4972368;28;20050;-73
2024/03/13 07:31:31;;;;;;;18.73;10.77;;;10.20;99.90;;;;;;4972990;28;20100;-73
2024/03/13 07:33:59;;;;;;;17.70;11.25;;;10.10;99.90;;;;;;4992659;28;20590;-74
2024/03/13 07:36:26;;;;;;;12.95;9.43;;;10.00;99.90;;;;;;5001942;28;20038;-73
2024/03/13 07:38:55;;;;;;;14.57;9.80;;;10.10;99.90;;;;;;4977807;28;20022;-73
2024/03/13 07:41:24;;;;;;;14.80;8.85;;;10.10;99.90;;;;;;4998771;28;20098;-73
2024/03/13 07:43:52;;;;;;;12.73;9.77;;;10.10;99.90;;;;;;4991896;28;20428;-72
2024/03/13 07:46:21;;;;;;;15.52;10.18;;;10.10;99.90;;;;;;4997751;28;20030;-71
2024/03/13 07:48:49;;;;;;;17.15;11.60;;;10.10;99.90;;;;;;4977047;28;20038;-73
2024/03/13 07:51:18;;;;;;;19.23;12.60;;;10.10;99.90;;;;;;4991532;28;20058;-72
2024/03/13 07:53:48;;;;;;;18.67;11.88;;;10.20;99.90;;;;;;4988792;28;20054;-72
2024/03/13 07:56:20;;;;;;;21.35;11.98;;;10.30;99.90;;;;;;4996505;28;20136;-74
2024/03/13 07:58:51;;;;;;;17.83;11.27;;;10.30;99.90;;;;;;4995417;28;20394;-74
2024/03/13 08:01:19;;;;;;;15.13;10.80;;;10.30;99.90;;;;;;4972753;28;20042;-74
2024/03/13 08:03:51;;;;;;;17.42;11.55;;;10.30;99.90;;;;;;4977684;28;20050;-75
2024/03/13 08:06:19;;;;;;;17.92;10.88;;;10.20;99.90;;;;;;4991426;28;20094;-73
2024/03/13 08:09:05;;;;;;;14.25;10.38;;;10.50;99.90;;;;;;4974066;28;20105;-73
2024/03/13 08:11:50;;;;;;;14.48;10.85;;;10.40;99.90;;;;;;4972938;28;20022;-74
2024/03/13 08:14:34;;;;;;;17.23;11.20;;;10.50;99.90;;;;;;4990418;28;20339;-73
2024/03/13 08:17:20;;;;;;;17.92;11.43;;;10.80;99.90;;;;;;5002198;28;20694;-74
2024/03/13 08:20:07;;;;;;;14.43;10.55;;;11.00;99.90;;;;;;4974948;28;20049;-72
2024/03/13 08:22:51;;;;;;;14.23;10.50;;;11.10;99.90;;;;;;4988023;28;20050;-73
2024/03/13 08:25:36;;;;;;;14.25;9.32;;;11.10;99.90;;;;;;4991348;28;20374;-74
2024/03/13 08:28:21;;;;;;;13.85;8.52;;;11.30;99.90;;;;;;4973585;28;20030;-74
2024/03/13 08:31:06;;;;;;;14.50;8.88;;;11.30;99.90;;;;;;4988043;28;20359;-74
2024/03/13 08:33:56;;;;;;;13.45;9.02;;;11.10;99.90;;;;;;4975598;28;20052;-75
2024/03/13 08:36:41;;;;;;;13.25;7.55;;;11.30;99.90;;;;;;5001105;28;20462;-74
2024/03/13 08:39:30;;;;;;;12.38;7.35;;;11.50;99.90;;;;;;4990807;28;20121;-73
2024/03/13 08:42:14;;;;;;;10.65;7.15;;;11.70;99.90;;;;;;4988108;28;20056;-73
2024/03/13 08:45:01;;;;;;;10.25;6.78;;;11.70;99.90;;;;;;4983937;28;20055;-73
2024/03/13 08:47:47;;;;;;;8.88;5.50;;;12.00;99.90;;;;;;4974692;28;20485;-73
2024/03/13 08:50:38;;;;;;;6.90;5.85;;;12.20;99.90;;;;;;4965645;28;20042;-75
2024/03/13 08:53:25;;;;;;;7.45;5.47;;;12.20;99.90;;;;;;4970451;28;20486;-73
2024/03/13 08:56:10;;;;;;;9.27;5.38;;;12.50;99.90;;;;;;4977070;28;20098;-75
2024/03/13 08:59:08;;;;;;;7.93;6.22;;;12.80;99.30;;;;;;4984479;28;20039;-74
2024/03/13 09:01:54;;;;;;;10.98;6.15;;;13.10;99.50;;;;;;4975711;28;20094;-76
2024/03/13 09:04:39;;;;;;;9.95;5.72;;;13.40;99.00;;;;;;4984060;28;20030;-73
2024/03/13 09:07:26;;;;;;;7.43;5.30;;;13.50;98.00;;;;;;4975241;28;20027;-72
2024/03/13 09:09:54;;;;;;;7.78;5.13;;;13.30;97.20;;;;;;4977881;28;20035;-73
2024/03/13 09:12:23;;;;;;;9.30;5.75;;;13.40;96.60;;;;;;4968565;28;20050;-74
2024/03/13 09:14:51;;;;;;;12.63;5.45;;;13.50;96.40;;;;;;4976208;28;20563;-73
2024/03/13 09:17:18;;;;;;;9.95;6.72;;;13.50;96.70;;;;;;4981154;28;20039;-73
2024/03/13 09:19:49;;;;;;;12.38;5.60;;;13.70;96.70;;;;;;4972676;28;20138;-73
2024/03/13 09:22:20;;;;;;;9.52;5.53;;;13.90;96.30;;;;;;4971045;28;20043;-73
2024/03/13 09:24:48;;;;;;;7.15;5.07;;;14.00;95.70;;;;;;4976902;28;20049;-73
2024/03/13 09:27:16;;;;;;;10.10;5.63;;;14.10;94.90;;;;;;4980005;28;20038;-73
2024/03/13 09:29:44;;;;;;;8.38;4.75;;;14.10;94.50;;;;;;4983281;28;20034;-74
2024/03/13 09:32:11;;;;;;;6.70;4.80;;;14.20;93.90;;;;;;4975671;28;20457;-74
2024/03/13 09:35:09;;;;;;;8.13;5.25;;;14.20;93.60;;;;;;4972649;28;20374;-72
2024/03/13 09:37:38;;;;;;;9.68;5.03;;;14.10;92.80;;;;;;4963528;28;20039;-73
2024/03/13 09:40:11;;;;;;;7.30;5.25;;;14.70;92.20;;;;;;4971339;28;20035;-74
2024/03/13 09:42:40;;;;;;;8.13;5.05;;;15.00;91.80;;;;;;4989900;28;20104;-72
2024/03/13 09:45:17;;;;;;;9.73;4.78;;;15.30;91.60;;;;;;4986233;28;20050;-74
2024/03/13 09:47:45;;;;;;;9.57;5.20;;;15.80;91.60;;;;;;4970895;28;20498;-74
2024/03/13 09:50:17;;;;;;;10.55;5.28;;;16.10;90.90;;;;;;4975729;28;20038;-74
2024/03/13 09:52:52;;;;;;;6.75;4.72;;;16.30;90.40;;;;;;4974986;28;20073;-74
2024/03/13 09:55:23;;;;;;;8.13;4.80;;;16.30;90.30;;;;;;4961842;28;20076;-74
2024/03/13 09:57:56;;;;;;;8.10;4.32;;;16.00;89.10;;;;;;4977135;28;20117;-76
2024/03/13 10:00:28;;;;;;;10.35;4.40;;;15.80;88.30;;;;;;4987767;28;20069;-73
2024/03/13 10:03:07;;;;;;;8.70;4.53;;;15.10;88.60;;;;;;4971205;28;20057;-71
2024/03/13 10:05:37;;;;;;;5.45;3.50;;;15.30;89.50;;;;;;4989539;28;20404;-72
2024/03/13 10:08:08;;;;;;;5.70;3.72;;;15.00;84.40;;;;;;4969957;28;20078;-72
2024/03/13 10:10:41;;;;;;;9.32;3.75;;;14.50;86.10;;;;;;4971522;28;20031;-72
2024/03/13 10:13:13;;;;;;;10.10;3.95;;;14.10;86.40;;;;;;4970273;28;20042;-75
2024/03/13 10:15:43;;;;;;;8.07;3.50;;;14.40;87.90;;;;;;4970928;28;20038;-71
2024/03/13 10:18:20;;;;;;;;;;;14.60;87.60;;;;;;4971015;28;20050;-70
2024/03/13 10:20:55;;;;;;;7.38;3.35;;;14.40;86.10;;;;;;4971050;28;20284;-73
2024/03/13 10:23:27;;;;;;;5.45;3.90;;;14.30;86.10;;;;;;4965967;28;20042;-75
2024/03/13 10:25:59;;;;;;;5.30;3.17;;;14.60;87.20;;;;;;4976766;28;20066;-72
2024/03/13 10:28:30;;;;;;;6.20;3.75;;;15.00;84.00;;;;;;4976675;28;20046;-72
2024/03/13 10:30:59;;;;;;;;;;;15.20;83.20;;;;;;4970039;28;20713;-74
2024/03/13 10:33:28;;;;;;;5.97;3.60;;;15.80;81.50;;;;;;4994587;28;20007;-71
2024/03/13 10:35:56;;;;;;;10.93;3.88;;;14.50;84.00;;;;;;4971264;28;20051;-74
2024/03/13 10:38:25;;;;;;;5.07;3.60;;;14.60;84.10;;;;;;4972003;28;20386;-76
2024/03/13 10:40:53;;;;;;;5.70;3.65;;;15.40;83.00;;;;;;4971556;28;20085;-75
2024/03/13 10:43:20;;;;;;;4.38;3.30;;;15.80;81.10;;;;;;4973943;28;20099;-74
2024/03/13 10:45:48;;;;;;;5.80;3.47;;;16.40;81.50;;;;;;4982414;28;20043;-76
2024/03/13 10:48:23;;;;;;;8.07;3.80;;;16.60;80.90;;;;;;4977539;28;20035;-72
2024/03/13 10:50:53;;;;;;;5.90;4.00;;;17.20;78.50;;;;;;4973415;28;20478;-76
2024/03/13 10:53:21;;;;;;;4.95;3.58;;;17.30;78.50;;;;;;4969772;28;20092;-74
2024/03/13 10:55:48;;;;;;;5.28;3.63;;;17.10;77.30;;;;;;4969748;28;20042;-74
2024/03/13 10:58:20;;;;;;;7.93;3.40;;;16.80;78.30;;;;;;4960994;28;20042;-72
2024/03/13 11:00:51;;;;;;;7.18;3.15;;;16.60;78.50;;;;;;4970435;28;20084;-74
2024/03/13 11:03:19;;;;;;;9.40;3.50;;;16.70;78.90;;;;;;4981368;28;20059;-77
2024/03/13 11:05:54;;;;;;;7.32;3.20;;;16.80;77.80;;;;;;4984754;28;20046;-71
2024/03/13 11:08:27;;;;;;;6.30;3.38;;;16.80;78.50;;;;;;4976508;28;20034;-73
2024/03/13 11:10:57;;;;;;;5.80;3.20;;;16.80;77.80;;;;;;4978841;28;20034;-74
2024/03/13 11:13:48;;;;;;;5.93;3.25;;;16.50;76.70;;;;;;4977393;28;20367;-71
2024/03/13 11:16:21;;;;;;;4.75;3.17;;;15.50;78.40;;;;;;4981821;28;20049;-73
2024/03/13 11:18:55;;;;;;;5.95;3.17;;;15.40;78.60;;;;;;4977152;28;20054;-74
2024/03/13 11:21:56;;;;;;;7.28;3.67;;;15.60;77.30;;;;;;4971553;28;20046;-73
2024/03/13 11:24:33;;;;;;;5.68;3.22;;;16.10;78.40;;;;;;4978968;28;20069;-73
2024/03/13 11:27:16;;;;;;;6.55;3.28;;;16.70;76.80;;;;;;4969802;28;20035;-74
2024/03/13 11:29:49;;;;;;;5.25;3.15;;;16.30;78.00;;;;;;4977760;28;20035;-73
2024/03/13 11:32:19;;;;;;;7.32;3.08;;;16.40;77.30;;;;;;4975652;28;20054;-73
2024/03/13 11:34:51;;;;;;;4.47;3.13;;;15.30;78.50;;;;;;4961831;28;20429;-72
2024/03/13 11:37:25;;;;;;;6.10;3.03;;;15.50;79.50;;;;;;4976397;28;20030;-74
2024/03/13 11:39:55;;;;;;;4.20;3.13;;;15.80;79.50;;;;;;4972275;28;20375;-75
2024/03/13 11:42:29;;;;;;;5.95;3.00;;;15.80;78.20;;;;;;4972618;28;20088;-75
2024/03/13 11:45:22;;;;;;;10.80;3.42;;;15.90;79.70;;;;;;4973077;28;20035;-73
2024/03/13 11:47:57;;;;;;;4.72;3.22;;;16.20;80.90;;;;;;4976984;28;20035;-74
2024/03/13 11:50:26;;;;;;;5.97;3.17;;;16.00;80.00;;;;;;4978880;28;20084;-76
2024/03/13 11:52:58;;;;;;;8.18;3.33;;;16.00;80.10;;;;;;4989029;28;20049;-74
2024/03/13 11:55:26;;;;;;;6.57;3.40;;;15.60;80.20;;;;;;4988824;28;20037;-76
2024/03/13 11:58:06;;;;;;;6.18;3.20;;;15.10;81.10;;;;;;4973808;28;20038;-78
2024/03/13 12:00:35;;;;;;;6.40;3.30;;;15.00;80.60;;;;;;4990978;28;20038;-75
2024/03/13 12:03:03;;;;;;;5.75;3.15;;;15.20;80.90;;;;;;4981547;28;20051;-76
2024/03/13 12:05:54;;;;;;;6.78;3.50;;;14.90;81.60;;;;;;5005298;28;20076;-76
2024/03/13 12:08:22;;;;;;;4.50;2.85;;;14.90;81.70;;;;;;4990843;28;20069;-78
2024/03/13 12:10:54;;;;;;;4.05;2.97;;;15.00;81.10;;;;;;4988151;28;20404;-77
2024/03/13 12:13:22;;;;;;;5.13;2.92;;;14.80;81.50;;;;;;4989947;28;20435;-76
2024/03/13 12:15:49;;;;;;;5.35;3.40;;;15.00;80.50;;;;;;4972095;28;20050;-75
2024/03/13 12:18:17;;;;;;;6.82;3.22;;;14.80;82.50;;;;;;4990411;28;20045;-77
2024/03/13 12:20:45;;;;;;;4.90;3.40;;;14.40;82.30;;;;;;4973060;28;20050;-76
2024/03/13 12:23:17;;;;;;;4.63;3.30;;;14.60;82.80;;;;;;4984624;28;20074;-77
2024/03/13 12:25:47;;;;;;;7.75;3.20;;;14.80;82.20;;;;;;4978539;28;20202;-76
2024/03/13 12:28:21;;;;;;;4.68;3.10;;;14.90;81.70;;;;;;5003827;28;20041;-77
2024/03/13 12:30:50;;;;;;;5.72;3.20;;;15.00;79.70;;;;;;4975981;28;20069;-77
2024/03/13 12:33:18;;;;;;;4.03;3.10;;;14.80;81.20;;;;;;4994348;28;20378;-75
2024/03/13 12:35:56;;;;;;;4.95;3.28;;;15.10;80.20;;;;;;5000341;28;20034;-75
2024/03/13 12:38:38;;;;;;;7.68;3.20;;;15.30;79.50;;;;;;4997479;28;20038;-76
2024/03/13 12:41:10;;;;;;;7.88;3.15;;;15.80;80.30;;;;;;4994102;28;20074;-76
2024/03/13 12:43:40;;;;;;;14.18;3.40;;;16.60;78.10;;;;;;4976420;28;20041;-74
2024/03/13 12:46:15;;;;;;;8.05;3.45;;;17.00;74.80;;;;;;4994407;28;20381;-75
2024/03/13 12:48:54;;;;;;;6.82;2.70;;;17.20;74.20;;;;;;4972739;28;20516;-76
2024/03/13 12:51:27;;;;;;;4.27;2.47;;;20.10;70.60;;;;;;4993004;28;20401;-77
2024/03/13 12:54:06;;;;;;;3.85;2.30;;;19.50;67.70;;;;;;4969037;28;20040;-76
2024/03/13 12:56:35;;;;;;;6.03;2.35;;;17.50;70.30;;;;;;4979738;28;20500;-77
2024/03/13 12:59:11;;;;;;;3.70;2.40;;;16.60;71.00;;;;;;4999842;28;20038;-75
2024/03/13 13:01:49;;;;;;;3.25;2.10;;;17.70;68.90;;;;;;4978879;28;20366;-76
2024/03/13 13:04:25;;;;;;;3.92;2.20;;;17.50;69.30;;;;;;4999762;28;20046;-76
2024/03/13 13:06:54;;;;;;;6.68;1.92;;;17.80;68.20;;;;;;4974776;28;20039;-76
2024/03/13 13:09:26;;;;;;;2.83;2.00;;;17.20;67.60;;;;;;5005622;28;20103;-77
2024/03/13 13:11:54;;;;;;;7.45;4.82;;;16.70;68.90;;;;;;5004028;28;20044;-76
2024/03/13 13:14:23;;;;;;;4.20;2.20;;;17.60;68.40;;;;;;4991993;28;20046;-76
2024/03/13 13:16:51;;;;;;;3.53;1.80;;;18.30;65.60;;;;;;4992633;28;20042;-75
2024/03/13 13:19:20;;;;;;;2.38;1.70;;;21.50;62.70;;;;;;5005257;28;20036;-77
2024/03/13 13:21:48;;;;;;;4.78;1.80;;;24.10;58.20;;;;;;4993430;28;20034;-76
2024/03/13 13:24:17;;;;;;;2.90;1.60;;;24.60;54.30;;;;;;4988590;28;20034;-79
2024/03/13 13:26:44;;;;;;;3.08;1.40;;;23.30;56.70;;;;;;4975731;28;20129;-76